Time;durP1;ratioP1;P1;durP2;ratioP2;P2;SDS_P1;SDS_P2;PMS_P1;PMS_P2;Temp;Humidity;BMP_temperature;BMP_pressure;BME280_temperature;BME280_humidity;BME280_pressure;Samples;Min_cycle;Max_cycle;Signal;HPM_P1;HPM_P2
2024/01/12 00:01:05;;;;;;;;;;;;;;;;;;5036582;28;1980;-71
2024/01/12 00:03:30;;;;;;;;;;;;;;;;;;5036744;28;1089;-72
2024/01/12 00:05:56;;;;;;;;;;;;;;;;;;5035831;28;1151;-72
2024/01/12 00:08:21;;;;;;;;;;;;;;;;;;5036752;28;832;-72
2024/01/12 00:10:46;;;;;;;;;;;;;;;;;;5036723;28;825;-71
2024/01/12 00:13:11;;;;;;;;;;;;;;;;;;5036064;28;860;-71
2024/01/12 00:15:36;;;;;;;;;;;;;;;;;;5036418;28;833;-71
2024/01/12 00:18:02;;;;;;;;;;;;;;;;;;5036380;28;1011;-72
2024/01/12 00:20:27;;;;;;;;;;;;;;;;;;5036282;28;1962;-72
2024/01/12 00:22:56;;;;;;;;;;;;;;;;;;5036054;28;1034;-71
2024/01/12 00:25:21;;;;;;;;;;;;;;;;;;5034929;28;900;-71
2024/01/12 00:27:47;;;;;;;;;;;;;;;;;;5035846;28;1070;-72
2024/01/12 00:30:12;;;;;;;;;;;;;;;;;;5036370;28;896;-71
2024/01/12 00:32:38;;;;;;;;;;;;;;;;;;5051893;28;1268;-71
2024/01/12 00:35:04;;;;;;;;;;;;;;;;;;5036114;28;931;-72
2024/01/12 00:37:29;;;;;;;;;;;;;;;;;;5051391;28;1346;-71
2024/01/12 00:39:54;;;;;;;;;;;;;;;;;;5036461;28;1910;-72
2024/01/12 00:42:19;;;;;;;;;;;;;;;;;;5036124;28;872;-71
2024/01/12 00:44:45;;;;;;;;;;;;;;;;;;5035876;28;921;-71
2024/01/12 00:47:10;;;;;;;;;;;;;;;;;;5035731;28;865;-71
2024/01/12 00:49:35;;;;;;;;;;;;;;;;;;5035836;28;995;-71
2024/01/12 00:52:01;;;;;;;;;;;;;;;;;;5035667;28;947;-71
2024/01/12 00:54:26;;;;;;;;;;;;;;;;;;5034452;28;1075;-71
2024/01/12 00:56:55;;;;;;;;;;;;;;;;;;5035938;28;930;-72
2024/01/12 00:59:22;;;;;;;;;;;;;;;;;;5050869;28;1156;-71
2024/01/12 01:01:47;;;;;;;;;;;;;;;;;;5034399;28;1335;-71
2024/01/12 01:04:13;;;;;;;;;;;;;;;;;;5035506;28;927;-72
2024/01/12 01:06:38;;;;;;;;;;;;;;;;;;5035833;28;900;-72
2024/01/12 01:09:03;;;;;;;;;;;;;;;;;;5035279;28;853;-71
2024/01/12 01:11:29;;;;;;;;;;;;;;;;;;5035172;28;770;-71
2024/01/12 01:13:54;;;;;;;;;;;;;;;;;;5035225;28;840;-72
2024/01/12 01:16:19;;;;;;;;;;;;;;;;;;5050200;28;1211;-71
2024/01/12 01:18:45;;;;;;;;;;;;;;;;;;5050316;28;1172;-71
2024/01/12 01:21:10;;;;;;;;;;;;;;;;;;5034346;28;1965;-71
2024/01/12 01:23:35;;;;;;;;;;;;;;;;;;5033489;28;1395;-71
2024/01/12 01:26:00;;;;;;;;;;;;;;;;;;5033497;28;1634;-71
2024/01/12 01:28:26;;;;;;;;;;;;;;;;;;5033185;28;1289;-71
2024/01/12 01:30:51;;;;;;;;;;;;;;;;;;5033504;28;1200;-70
2024/01/12 01:33:16;;;;;;;;;;;;;;;;;;5033358;28;1151;-70
2024/01/12 01:35:42;;;;;;;;;;;;;;;;;;5035269;28;903;-71
2024/01/12 01:38:07;;;;;;;;;;;;;;;;;;5034708;28;951;-71
2024/01/12 01:40:32;;;;;;;;;;;;;;;;;;5034245;28;1918;-71
2024/01/12 01:43:06;;;;;;;;;;;;;;;;;;5049374;28;1145;-71
2024/01/12 01:45:33;;;;;;;;;;;;;;;;;;5034178;28;979;-71
2024/01/12 01:47:59;;;;;;;;;;;;;;;;;;5034620;28;876;-71
2024/01/12 01:50:24;;;;;;;;;;;;;;;;;;5029874;28;1252;-71
2024/01/12 01:52:49;;;;;;;;;;;;;;;;;;5030418;28;1154;-71
2024/01/12 01:55:15;;;;;;;;;;;;;;;;;;5033142;28;1189;-71
2024/01/12 01:57:42;;;;;;;;;;;;;;;;;;5032870;28;1287;-71
2024/01/12 02:00:08;;;;;;;;;;;;;;;;;;5034149;28;1906;-71
2024/01/12 02:02:33;;;;;;;;;;;;;;;;;;5033998;28;822;-71
2024/01/12 02:05:00;;;;;;;;;;;;;;;;;;5033680;28;854;-71
2024/01/12 02:07:25;;;;;;;;;;;;;;;;;;5034122;28;885;-71
2024/01/12 02:09:51;;;;;;;;;;;;;;;;;;5034263;28;971;-71
2024/01/12 02:12:16;;;;;;;;;;;;;;;;;;5034041;28;1046;-71
2024/01/12 02:14:42;;;;;;;;;;;;;;;;;;5033941;28;927;-71
2024/01/12 02:17:07;;;;;;;;;;;;;;;;;;5049178;28;1283;-71
2024/01/12 02:19:32;;;;;;;;;;;;;;;;;;5033055;28;1918;-72
2024/01/12 02:21:57;;;;;;;;;;;;;;;;;;5033798;28;872;-70
2024/01/12 02:24:22;;;;;;;;;;;;;;;;;;5033447;28;825;-72
2024/01/12 02:26:48;;;;;;;;;;;;;;;;;;5032722;28;1529;-71
2024/01/12 02:29:13;;;;;;;;;;;;;;;;;;5032810;28;1292;-71
2024/01/12 02:31:39;;;;;;;;;;;;;;;;;;5033563;28;1042;-71
2024/01/12 02:34:04;;;;;;;;;;;;;;;;;;5048826;28;1219;-71
2024/01/12 02:36:29;;;;;;;;;;;;;;;;;;5032238;28;1391;-71
2024/01/12 02:38:55;;;;;;;;;;;;;;;;;;5032358;28;1405;-71
2024/01/12 02:41:20;;;;;;;;;;;;;;;;;;5049137;28;1961;-71
2024/01/12 02:43:46;;;;;;;;;;;;;;;;;;5033598;28;797;-71
2024/01/12 02:46:11;;;;;;;;;;;;;;;;;;5033385;28;816;-71
2024/01/12 02:48:36;;;;;;;;;;;;;;;;;;5033385;28;836;-71
2024/01/12 02:51:01;;;;;;;;;;;;;;;;;;5032117;28;1281;-71
2024/01/12 02:53:26;;;;;;;;;;;;;;;;;;5032168;28;1138;-71
2024/01/12 02:55:52;;;;;;;;;;;;;;;;;;5033662;28;1022;-71
2024/01/12 02:58:17;;;;;;;;;;;;;;;;;;5048995;28;1231;-70
2024/01/12 03:00:42;;;;;;;;;;;;;;;;;;5033470;28;1923;-71
2024/01/12 03:03:08;;;;;;;;;;;;;;;;;;5033545;28;999;-71
2024/01/12 03:05:33;;;;;;;;;;;;;;;;;;5033152;28;832;-71
2024/01/12 03:07:58;;;;;;;;;;;;;;;;;;5033206;28;880;-71
2024/01/12 03:10:23;;;;;;;;;;;;;;;;;;5031681;28;1402;-71
2024/01/12 03:12:49;;;;;;;;;;;;;;;;;;5033191;28;896;-71
2024/01/12 03:15:14;;;;;;;;;;;;;;;;;;5033121;28;820;-70
2024/01/12 03:17:40;;;;;;;;;;;;;;;;;;5033290;28;955;-71
2024/01/12 03:20:06;;;;;;;;;;;;;;;;;;5033209;28;1957;-71
2024/01/12 03:22:31;;;;;;;;;;;;;;;;;;5034008;28;1066;-71
2024/01/12 03:24:56;;;;;;;;;;;;;;;;;;5033728;28;841;-71
2024/01/12 03:27:21;;;;;;;;;;;;;;;;;;5034156;28;1034;-71
2024/01/12 03:29:47;;;;;;;;;;;;;;;;;;5035030;28;896;-71
2024/01/12 03:32:12;;;;;;;;;;;;;;;;;;5037545;28;876;-72
2024/01/12 03:34:38;;;;;;;;;;;;;;;;;;5039646;28;844;-72
2024/01/12 03:37:03;;;;;;;;;;;;;;;;;;5053983;28;1238;-72
2024/01/12 03:39:28;;;;;;;;;;;;;;;;;;5018950;28;1953;-72
2024/01/12 03:41:54;;;;;;;;;;;;;;;;;;5036918;28;876;-71
2024/01/12 03:44:19;;;;;;;;;;;;;;;;;;5037167;28;801;-71
2024/01/12 03:46:44;;;;;;;;;;;;;;;;;;5037455;28;888;-71
2024/01/12 03:49:09;;;;;;;;;;;;;;;;;;5037084;28;932;-71
2024/01/12 03:51:34;;;;;;;;;;;;;;;;;;5037486;28;801;-71
2024/01/12 03:54:00;;;;;;;;;;;;;;;;;;5052153;28;1224;-71
2024/01/12 03:56:25;;;;;;;;;;;;;;;;;;5036752;28;991;-72
2024/01/12 03:58:50;;;;;;;;;;;;;;;;;;5037122;28;1039;-72
2024/01/12 04:01:15;;;;;;;;;;;;;;;;;;5036921;28;1973;-72
2024/01/12 04:03:41;;;;;;;;;;;;;;;;;;5037238;28;908;-72
2024/01/12 04:06:07;;;;;;;;;;;;;;;;;;5052216;28;1323;-72
2024/01/12 04:08:32;;;;;;;;;;;;;;;;;;5036683;28;841;-72
2024/01/12 04:10:58;;;;;;;;;;;;;;;;;;5037046;28;1183;-71
2024/01/12 04:13:23;;;;;;;;;;;;;;;;;;5036705;28;903;-70
2024/01/12 04:15:48;;;;;;;;;;;;;;;;;;5036438;28;908;-71
2024/01/12 04:18:13;;;;;;;;;;;;;;;;;;5036143;28;829;-71
2024/01/12 04:20:38;;;;;;;;;;;;;;;;;;5051340;28;2028;-71
2024/01/12 04:23:04;;;;;;;;;;;;;;;;;;5036024;28;841;-70
2024/01/12 04:25:29;;;;;;;;;;;;;;;;;;5035496;28;1085;-71
2024/01/12 04:27:54;;;;;;;;;;;;;;;;;;5035118;28;1232;-71
2024/01/12 04:30:19;;;;;;;;;;;;;;;;;;5031969;28;1169;-71
2024/01/12 04:32:44;;;;;;;;;;;;;;;;;;5012754;28;1241;-71
2024/01/12 04:35:10;;;;;;;;;;;;;;;;;;5031806;28;1232;-71
2024/01/12 04:37:35;;;;;;;;;;;;;;;;;;5030304;28;1316;-71
2024/01/12 04:40:00;;;;;;;;;;;;;;;;;;5032219;28;1906;-70
2024/01/12 04:42:26;;;;;;;;;;;;;;;;;;5013925;28;1647;-71
2024/01/12 04:44:51;;;;;;;;;;;;;;;;;;5032484;28;1157;-71
2024/01/12 04:47:16;;;;;;;;;;;;;;;;;;5014365;28;1261;-71
2024/01/12 04:49:41;;;;;;;;;;;;;;;;;;5032533;28;1204;-71
2024/01/12 04:52:07;;;;;;;;;;;;;;;;;;5032320;28;1149;-72
2024/01/12 04:54:32;;;;;;;;;;;;;;;;;;5033498;28;1161;-71
2024/01/12 04:56:57;;;;;;;;;;;;;;;;;;5035268;28;880;-71
2024/01/12 04:59:23;;;;;;;;;;;;;;;;;;5035416;28;828;-71
2024/01/12 05:01:48;;;;;;;;;;;;;;;;;;5033897;28;1890;-72
2024/01/12 05:04:13;;;;;;;;;;;;;;;;;;5013605;28;1518;-71
2024/01/12 05:06:38;;;;;;;;;;;;;;;;;;5014963;28;1215;-71
2024/01/12 05:09:08;;;;;;;;;;;;;;;;;;5026143;28;1296;-72
2024/01/12 05:11:33;;;;;;;;;;;;;;;;;;5021778;28;1090;-71
2024/01/12 05:13:58;;;;;;;;;;;;;;;;;;5031443;28;1229;-71
2024/01/12 05:16:24;;;;;;;;;;;;;;;;;;5031648;28;1154;-71
2024/01/12 05:18:49;;;;;;;;;;;;;;;;;;5031620;28;1236;-71
2024/01/12 05:21:14;;;;;;;;;;;;;;;;;;5029891;28;1985;-71
2024/01/12 05:23:42;;;;;;;;;;;;;;;;;;5031744;28;1024;-71
2024/01/12 05:26:07;;;;;;;;;;;;;;;;;;5017034;28;1142;-71
2024/01/12 05:28:32;;;;;;;;;;;;;;;;;;5034838;28;1007;-71
2024/01/12 05:30:57;;;;;;;;;;;;;;;;;;5035231;28;844;-71
2024/01/12 05:33:23;;;;;;;;;;;;;;;;;;5033328;28;892;-71
2024/01/12 05:35:48;;;;;;;;;;;;;;;;;;5035115;28;947;-72
2024/01/12 05:38:13;;;;;;;;;;;;;;;;;;5016963;28;1184;-72
2024/01/12 05:40:38;;;;;;;;;;;;;;;;;;5034733;28;1975;-72
2024/01/12 05:43:04;;;;;;;;;;;;;;;;;;5016251;28;1218;-71
2024/01/12 05:45:29;;;;;;;;;;;;;;;;;;5030236;28;1229;-72
2024/01/12 05:47:54;;;;;;;;;;;;;;;;;;5013191;28;1309;-72
2024/01/12 05:50:19;;;;;;;;;;;;;;;;;;5030847;28;1177;-72
2024/01/12 05:52:46;;;;;;;;;;;;;;;;;;5014276;28;1256;-71
2024/01/12 05:55:11;;;;;;;;;;;;;;;;;;5033204;28;1165;-71
2024/01/12 05:57:36;;;;;;;;;;;;;;;;;;5034415;28;798;-71
2024/01/12 06:00:04;;;;;;;;;;;;;;;;;;5035046;28;1981;-72
2024/01/12 06:02:29;;;;;;;;;;;;;;;;;;5034537;28;816;-71
2024/01/12 06:04:54;;;;;;;;;;;;;;;;;;5034932;28;1011;-72
2024/01/12 06:07:19;;;;;;;;;;;;;;;;;;5016782;28;880;-71
2024/01/12 06:09:45;;;;;;;;;;;;;;;;;;5034220;28;837;-72
2024/01/12 06:12:11;;;;;;;;;;;;;;;;;;5034339;28;884;-72
2024/01/12 06:14:36;;;;;;;;;;;;;;;;;;5016305;28;1225;-71
2024/01/12 06:17:01;;;;;;;;;;;;;;;;;;5018461;28;1191;-70
2024/01/12 06:19:27;;;;;;;;;;;;;;;;;;5017746;28;1204;-73
2024/01/12 06:21:52;;;;;;;;;;;;;;;;;;5037611;28;1973;-73
2024/01/12 06:24:17;;;;;;;;;;;;;;;;;;5027053;28;1260;-73
2024/01/12 06:26:42;;;;;;;;;;;;;;;;;;5044309;28;1009;-72
2024/01/12 06:29:08;;;;;;;;;;;;;;;;;;5044526;28;939;-72
2024/01/12 06:31:33;;;;;;;;;;;;;;;;;;5041285;28;991;-72
2024/01/12 06:33:58;;;;;;;;;;;;;;;;;;5023470;28;1158;-72
2024/01/12 06:36:23;;;;;;;;;;;;;;;;;;5040193;28;1006;-72
2024/01/12 06:38:49;;;;;;;;;;;;;;;;;;5043600;28;888;-73
2024/01/12 06:41:14;;;;;;;;;;;;;;;;;;5020559;28;1910;-72
2024/01/12 06:43:39;;;;;;;;;;;;;;;;;;5043082;28;959;-73
2024/01/12 06:46:05;;;;;;;;;;;;;;;;;;5041657;28;977;-72
2024/01/12 06:48:30;;;;;;;;;;;;;;;;;;5024783;28;1493;-70
2024/01/12 06:50:56;;;;;;;;;;;;;;;;;;5044916;28;1173;-70
2024/01/12 06:53:21;;;;;;;;;;;;;;;;;;5042264;28;1137;-70
2024/01/12 06:55:46;;;;;;;;;;;;;;;;;;5044737;28;1209;-72
2024/01/12 06:58:11;;;;;;;;;;;;;;;;;;5044368;28;857;-72
2024/01/12 07:00:37;;;;;;;;;;;;;;;;;;5017765;28;1969;-72
2024/01/12 07:03:02;;;;;;;;;;;;;;;;;;5015671;28;1501;-72
2024/01/12 07:05:28;;;;;;;;;;;;;;;;;;5031752;28;1157;-71
2024/01/12 07:07:54;;;;;;;;;;;;;;;;;;5030403;28;1339;-73
2024/01/12 07:10:19;;;;;;;;;;;;;;;;;;5035699;28;1169;-72
2024/01/12 07:12:44;;;;;;;;;;;;;;;;;;5034000;28;1320;-72
2024/01/12 07:15:09;;;;;;;;;;;;;;;;;;5016740;28;1285;-72
2024/01/12 07:17:38;;;;;;;;;;;;;;;;;;5034017;28;1288;-72
2024/01/12 07:20:03;;;;;;;;;;;;;;;;;;5035670;28;1914;-71
2024/01/12 07:22:28;;;;;;;;;;;;;;;;;;5016887;28;1400;-72
2024/01/12 07:24:54;;;;;;;;;;;;;;;;;;5016353;28;1197;-71
2024/01/12 07:27:19;;;;;;;;;;;;;;;;;;5017804;28;1796;-72
2024/01/12 07:29:44;;;;;;;;;;;;;;;;;;5033976;28;1180;-72
2024/01/12 07:32:09;;;;;;;;;;;;;;;;;;5034458;28;1162;-72
2024/01/12 07:34:35;;;;;;;;;;;;;;;;;;5034960;28;1197;-72
2024/01/12 07:37:01;;;;;;;;;;;;;;;;;;5036766;28;912;-71
2024/01/12 07:39:26;;;;;;;;;;;;;;;;;;5037442;28;853;-72
2024/01/12 07:41:51;;;;;;;;;;;;;;;;;;5037537;28;1965;-71
2024/01/12 07:44:17;;;;;;;;;;;;;;;;;;5036815;28;813;-71
2024/01/12 07:46:42;;;;;;;;;;;;;;;;;;5038113;28;892;-71
2024/01/12 07:49:08;;;;;;;;;;;;;;;;;;5052231;28;1282;-71
2024/01/12 07:51:34;;;;;;;;;;;;;;;;;;5036611;28;1125;-71
2024/01/12 07:54:00;;;;;;;;;;;;;;;;;;5034337;28;1177;-70
2024/01/12 07:56:25;;;;;;;;;;;;;;;;;;5036498;28;913;-71
2024/01/12 07:58:50;;;;;;;;;;;;;;;;;;5051528;28;1362;-71
2024/01/12 08:01:17;;;;;;;;;;;;;;;;;;5036418;28;1906;-71
2024/01/12 08:03:43;;;;;;;;;;;;;;;;;;5036379;28;1217;-72
2024/01/12 08:06:08;;;;;;;;;;;;;;;;;;5035925;28;818;-71
2024/01/12 08:08:33;;;;;;;;;;;;;;;;;;5035712;28;833;-71
2024/01/12 08:10:59;;;;;;;;;;;;;;;;;;5036070;28;824;-71
2024/01/12 08:13:24;;;;;;;;;;;;;;;;;;5034098;28;1239;-71
2024/01/12 08:15:50;;;;;;;;;;;;;;;;;;5035957;28;849;-71
2024/01/12 08:18:15;;;;;;;;;;;;;;;;;;5034893;28;907;-71
2024/01/12 08:20:41;;;;;;;;;;;;;;;;;;5036122;28;1918;-71
2024/01/12 08:23:06;;;;;;;;;;;;;;;;;;5051066;28;1280;-71
2024/01/12 08:25:31;;;;;;;;;;;;;;;;;;5035912;28;1025;-71
2024/01/12 08:27:56;;;;;;;;;;;;;;;;;;5036118;28;916;-71
2024/01/12 08:30:22;;;;;;;;;;;;;;;;;;5036092;28;825;-71
2024/01/12 08:32:47;;;;;;;;;;;;;;;;;;5036151;28;817;-71
2024/01/12 08:35:13;;;;;;;;;;;;;;;;;;5035846;28;876;-71
2024/01/12 08:37:38;;;;;;;;;;;;;;;;;;5034209;28;1297;-71
2024/01/12 08:40:03;;;;;;;;;;;;;;;;;;5036086;28;1902;-71
2024/01/12 08:42:28;;;;;;;;;;;;;;;;;;5035472;28;915;-71
2024/01/12 08:44:54;;;;;;;;;;;;;;;;;;5034365;28;1335;-72
2024/01/12 08:47:19;;;;;;;;;;;;;;;;;;5035003;28;1324;-72
2024/01/12 08:49:44;;;;;;;;;;;;;;;;;;5034505;28;1341;-72
2024/01/12 08:52:10;;;;;;;;;;;;;;;;;;5035475;28;849;-71
2024/01/12 08:54:35;;;;;;;;;;;;;;;;;;5050672;28;1264;-72
2024/01/12 08:57:00;;;;;;;;;;;;;;;;;;5033614;28;1311;-72
2024/01/12 08:59:27;;;;;;;;;;;;;;;;;;5034548;28;977;-73
2024/01/12 09:01:52;;;;;;;;;;;;;;;;;;5032686;28;1910;-73
2024/01/12 09:04:17;;;;;;;;;;;;;;;;;;5034644;28;848;-72
2024/01/12 09:06:43;;;;;;;;;;;;;;;;;;5033608;28;817;-72
2024/01/12 09:09:08;;;;;;;;;;;;;;;;;;5033378;28;920;-73
2024/01/12 09:11:33;;;;;;;;;;;;;;;;;;5032297;28;1303;-72
2024/01/12 09:13:58;;;;;;;;;;;;;;;;;;5033986;28;943;-72
2024/01/12 09:16:24;;;;;;;;;;;;;;;;;;5033271;28;1241;-72
2024/01/12 09:18:49;;;;;;;;;;;;;;;;;;5034989;28;1027;-72
2024/01/12 09:21:15;;;;;;;;;;;;;;;;;;5033318;28;1893;-72
2024/01/12 09:23:44;;;;;;;;;;;;;;;;;;5034023;28;1179;-72
2024/01/12 09:26:12;;;;;;;;;;;;;;;;;;5034058;28;836;-72
2024/01/12 09:28:38;;;;;;;;;;;;;;;;;;5034620;28;896;-72
2024/01/12 09:31:03;;;;;;;;;;;;;;;;;;5035077;28;585;-72
2024/01/12 09:33:29;;;;;;;;;;;;;;;;;;5034756;28;873;-73
2024/01/12 09:35:54;;;;;;;;;;;;;;;;;;5034529;28;830;-72
2024/01/12 09:38:19;;;;;;;;;;;;;;;;;;5034830;28;841;-72
2024/01/12 09:40:45;;;;;;;;;;;;;;;;;;5034906;28;1902;-72
2024/01/12 09:43:13;;;;;;;;;;;;;;;;;;5033622;28;1315;-78
2024/01/12 09:45:41;;;;;;;;;;;;;;;;;;5035365;28;924;-78
2024/01/12 09:48:07;;;;;;;;;;;;;;;;;;5035222;28;900;-78
2024/01/12 09:50:32;;;;;;;;;;;;;;;;;;5034234;28;1167;-78
2024/01/12 09:52:58;;;;;;;;;;;;;;;;;;5035039;28;888;-78
2024/01/12 09:55:23;;;;;;;;;;;;;;;;;;5034853;28;1062;-78
2024/01/12 09:57:48;;;;;;;;;;;;;;;;;;5050596;28;1176;-78
2024/01/12 10:00:16;;;;;;;;;;;;;;;;;;5034779;28;1883;-78
2024/01/12 10:02:42;;;;;;;;;;;;;;;;;;5032946;28;1511;-72
2024/01/12 10:05:07;;;;;;;;;;;;;;;;;;5034338;28;771;-73
2024/01/12 10:07:32;;;;;;;;;;;;;;;;;;5032176;28;1168;-72
2024/01/12 10:09:58;;;;;;;;;;;;;;;;;;5048833;28;1316;-73
2024/01/12 10:12:23;;;;;;;;;;;;;;;;;;5032685;28;1359;-72
2024/01/12 10:14:58;;;;;;;;;;;;;;;;;;5033946;28;844;-73
2024/01/12 10:17:23;;;;;;;;;;;;;;;;;;5033805;28;871;-72
2024/01/12 10:19:49;;;;;;;;;;;;;;;;;;5033546;28;1967;-73
2024/01/12 10:22:15;;;;;;;;;;;;;;;;;;5033865;28;939;-73
2024/01/12 10:24:40;;;;;;;;;;;;;;;;;;5033829;28;813;-73
2024/01/12 10:27:05;;;;;;;;;;;;;;;;;;5033593;28;1058;-72
2024/01/12 10:29:30;;;;;;;;;;;;;;;;;;5033557;28;856;-73
2024/01/12 10:31:56;;;;;;;;;;;;;;;;;;5048961;28;1144;-72
2024/01/12 10:34:21;;;;;;;;;;;;;;;;;;5033443;28;821;-73
2024/01/12 10:36:49;;;;;;;;;;;;;;;;;;5032092;28;1297;-73
2024/01/12 10:39:18;;;;;;;;;;;;;;;;;;5048525;28;1179;-73
2024/01/12 10:41:45;;;;;;;;;;;;;;;;;;5031795;28;1972;-73
2024/01/12 10:44:13;;;;;;;;;;;;;;;;;;5048403;28;1300;-73
2024/01/12 10:46:47;;;;;;;;;;;;;;;;;;5031713;28;1148;-73
2024/01/12 10:49:18;;;;;;;;;;;;;;;;;;5048546;28;1472;-73
2024/01/12 10:51:52;;;;;;;;;;;;;;;;;;5032017;28;1576;-72
2024/01/12 10:54:20;;;;;;;;;;;;;;;;;;5032102;28;1274;-73
2024/01/12 10:56:45;;;;;;;;;;;;;;;;;;5047993;28;1304;-73
2024/01/12 10:59:12;;;;;;;;;;;;;;;;;;5048506;28;1259;-73
2024/01/12 11:01:37;;;;;;;;;;;;;;;;;;5033005;28;1914;-73
2024/01/12 11:04:03;;;;;;;;;;;;;;;;;;5032751;28;837;-73
2024/01/12 11:06:29;;;;;;;;;;;;;;;;;;5032988;28;878;-73
2024/01/12 11:08:55;;;;;;;;;;;;;;;;;;5031205;28;1266;-73
2024/01/12 11:11:22;;;;;;;;;;;;;;;;;;5048303;28;1192;-74
2024/01/12 11:13:48;;;;;;;;;;;;;;;;;;5033194;28;864;-72
2024/01/12 11:16:13;;;;;;;;;;;;;;;;;;5031580;28;1193;-73
2024/01/12 11:18:38;;;;;;;;;;;;;;;;;;5033084;28;963;-73
2024/01/12 11:21:04;;;;;;;;;;;;;;;;;;5033000;28;1903;-73
2024/01/12 11:23:37;;;;;;;;;;;;;;;;;;5048221;28;1208;-73
2024/01/12 11:26:02;;;;;;;;;;;;;;;;;;5032884;28;841;-73
2024/01/12 11:28:34;;;;;;;;;;;;;;;;;;5032953;28;829;-73
2024/01/12 11:31:00;;;;;;;;;;;;;;;;;;5048975;28;1132;-73
2024/01/12 11:33:25;;;;;;;;;;;;;;;;;;5034888;28;979;-73
2024/01/12 11:35:51;;;;;;;;;;;;;;;;;;5049852;28;1324;-73
2024/01/12 11:38:17;;;;;;;;;;;;;;;;;;5034227;28;845;-73
2024/01/12 11:40:43;;;;;;;;;;;;;;;;;;5049671;28;1914;-73
2024/01/12 11:43:14;;;;;;;;;;;;;;;;;;5034226;28;853;-73
2024/01/12 11:45:41;;;;;;;;;;;;;;;;;;5034417;28;833;-73
2024/01/12 11:48:06;;;;;;;;;;;;;;;;;;5049058;28;1196;-73
2024/01/12 11:50:31;;;;;;;;;;;;;;;;;;5049147;28;1282;-73
2024/01/12 11:52:57;;;;;;;;;;;;;;;;;;5035487;28;817;-73
2024/01/12 11:55:23;;;;;;;;;;;;;;;;;;5035737;28;1152;-73
2024/01/12 11:57:49;;;;;;;;;;;;;;;;;;5052681;28;1133;-73
2024/01/12 12:00:14;;;;;;;;;;;;;;;;;;5036967;28;1914;-73
2024/01/12 12:02:39;;;;;;;;;;;;;;;;;;5036827;28;855;-73
2024/01/12 12:05:11;;;;;;;;;;;;;;;;;;5036646;28;990;-74
2024/01/12 12:07:37;;;;;;;;;;;;;;;;;;5037092;28;840;-73
2024/01/12 12:10:03;;;;;;;;;;;;;;;;;;5035109;28;1565;-73
2024/01/12 12:12:28;;;;;;;;;;;;;;;;;;5035602;28;936;-73
2024/01/12 12:15:12;;;;;;;;;;;;;;;;;;5051964;28;1148;-73
2024/01/12 12:17:40;;;;;;;;;;;;;;;;;;5037364;28;832;-73
2024/01/12 12:20:10;;;;;;;;;;;;;;;;;;5035500;28;1898;-72
2024/01/12 12:22:36;;;;;;;;;;;;;;;;;;5037199;28;852;-73
2024/01/12 12:25:01;;;;;;;;;;;;;;;;;;5037345;28;817;-73
2024/01/12 12:27:27;;;;;;;;;;;;;;;;;;5051937;28;1326;-72
2024/01/12 12:29:53;;;;;;;;;;;;;;;;;;5036816;28;1042;-72
2024/01/12 12:32:18;;;;;;;;;;;;;;;;;;5036369;28;1050;-72
2024/01/12 12:34:43;;;;;;;;;;;;;;;;;;5036625;28;995;-72
2024/01/12 12:37:09;;;;;;;;;;;;;;;;;;5037051;28;911;-72
2024/01/12 12:39:37;;;;;;;;;;;;;;;;;;5051413;28;1180;-72
2024/01/12 12:42:04;;;;;;;;;;;;;;;;;;5034794;28;1882;-72
2024/01/12 12:44:31;;;;;;;;;;;;;;;;;;5035812;28;954;-72
2024/01/12 12:46:57;;;;;;;;;;;;;;;;;;5034691;28;1391;-72
2024/01/12 12:49:29;;;;;;;;;;;;;;;;;;5034556;28;1597;-72
2024/01/12 12:51:54;;;;;;;;;;;;;;;;;;5036466;28;916;-73
2024/01/12 12:54:20;;;;;;;;;;;;;;;;;;5037002;28;953;-73
2024/01/12 12:56:46;;;;;;;;;;;;;;;;;;5035717;28;1335;-72
2024/01/12 12:59:12;;;;;;;;;;;;;;;;;;5035815;28;1406;-73
2024/01/12 13:01:38;;;;;;;;;;;;;;;;;;5050346;28;1962;-73
2024/01/12 13:04:03;;;;;;;;;;;;;;;;;;5039131;28;782;-73
2024/01/12 13:06:28;;;;;;;;;;;;;;;;;;5037574;28;979;-74
2024/01/12 13:08:53;;;;;;;;;;;;;;;;;;5034454;28;1141;-74
2024/01/12 13:11:19;;;;;;;;;;;;;;;;;;5035405;28;805;-73
2024/01/12 13:13:44;;;;;;;;;;;;;;;;;;5035090;28;1282;-73
2024/01/12 13:16:09;;;;;;;;;;;;;;;;;;5036037;28;900;-73
2024/01/12 13:18:34;;;;;;;;;;;;;;;;;;5036244;28;888;-73
2024/01/12 13:21:00;;;;;;;;;;;;;;;;;;5036027;28;1894;-72
2024/01/12 13:23:25;;;;;;;;;;;;;;;;;;5035574;28;1125;-72
2024/01/12 13:25:51;;;;;;;;;;;;;;;;;;5019938;28;1174;-73
2024/01/12 13:28:16;;;;;;;;;;;;;;;;;;5018888;28;1191;-72
2024/01/12 13:30:41;;;;;;;;;;;;;;;;;;5033914;28;1106;-72
2024/01/12 13:33:07;;;;;;;;;;;;;;;;;;5014455;28;1386;-71
2024/01/12 13:35:34;;;;;;;;;;;;;;;;;;5013794;28;1287;-71
2024/01/12 13:37:59;;;;;;;;;;;;;;;;;;5038838;28;1320;-71
2024/01/12 13:40:24;;;;;;;;;;;;;;;;;;5033041;28;1890;-72
2024/01/12 13:42:49;;;;;;;;;;;;;;;;;;5033097;28;1141;-71
2024/01/12 13:45:15;;;;;;;;;;;;;;;;;;5034456;28;1201;-71
2024/01/12 13:47:40;;;;;;;;;;;;;;;;;;5033855;28;1343;-72
2024/01/12 13:50:06;;;;;;;;;;;;;;;;;;5033178;28;1161;-72
2024/01/12 13:52:32;;;;;;;;;;;;;;;;;;5018498;28;1235;-72
2024/01/12 13:54:57;;;;;;;;;;;;;;;;;;5033197;28;1157;-72
2024/01/12 13:57:22;;;;;;;;;;;;;;;;;;5033888;28;1260;-72
2024/01/12 13:59:47;;;;;;;;;;;;;;;;;;5017443;28;1327;-73
2024/01/12 14:02:12;;;;;;;;;;;;;;;;;;5017978;28;1961;-72
2024/01/12 14:04:38;;;;;;;;;;;;;;;;;;5034233;28;903;-72
2024/01/12 14:07:03;;;;;;;;;;;;;;;;;;5034459;28;817;-72
2024/01/12 14:09:29;;;;;;;;;;;;;;;;;;5016669;28;1208;-72
2024/01/12 14:11:54;;;;;;;;;;;;;;;;;;5016192;28;1344;-72
2024/01/12 14:14:21;;;;;;;;;;;;;;;;;;5016293;28;1164;-73
2024/01/12 14:16:46;;;;;;;;;;;;;;;;;;5013854;28;1254;-72
2024/01/12 14:19:11;;;;;;;;;;;;;;;;;;5031350;28;1082;-79
2024/01/12 14:21:37;;;;;;;;;;;;;;;;;;5032225;28;1977;-79
2024/01/12 14:24:03;;;;;;;;;;;;;;;;;;5035091;28;1462;-79
2024/01/12 14:26:28;;;;;;;;;;;;;;;;;;5039665;28;1161;-79
2024/01/12 14:28:55;;;;;;;;;;;;;;;;;;5017366;28;1419;-80
2024/01/12 14:31:20;;;;;;;;;;;;;;;;;;5034250;28;849;-79
2024/01/12 14:33:45;;;;;;;;;;;;;;;;;;5016665;28;1177;-79
2024/01/12 14:36:11;;;;;;;;;;;;;;;;;;5044622;28;906;-79
2024/01/12 14:38:37;;;;;;;;;;;;;;;;;;5034321;28;883;-79
2024/01/12 14:41:03;;;;;;;;;;;;;;;;;;5034309;28;1973;-79
2024/01/12 14:43:28;;;;;;;;;;;;;;;;;;5016578;28;1196;-79
2024/01/12 14:45:53;;;;;;;;;;;;;;;;;;5016655;28;1173;-78
2024/01/12 14:48:19;;;;;;;;;;;;;;;;;;5016446;28;1317;-79
2024/01/12 14:50:45;;;;;;;;;;;;;;;;;;5034270;28;974;-79
2024/01/12 14:53:11;;;;;;;;;;;;;;;;;;5034250;28;884;-79
2024/01/12 14:55:37;;;;;;;;;;;;;;;;;;5016285;28;1243;-79
2024/01/12 14:58:02;;;;;;;;;;;;;;;;;;5034384;28;891;-73
2024/01/12 15:00:27;;;;;;;;;;;;;;;;;;5033158;28;1895;-73
2024/01/12 15:02:53;;;;;;;;;;;;;;;;;;5031984;28;1177;-73
2024/01/12 15:05:18;;;;;;;;;;;;;;;;;;5030939;28;1201;-73
2024/01/12 15:07:43;;;;;;;;;;;;;;;;;;5031335;28;1212;-73
2024/01/12 15:10:10;;;;;;;;;;;;;;;;;;5030637;28;1200;-73
2024/01/12 15:12:35;;;;;;;;;;;;;;;;;;5028760;28;1209;-73
2024/01/12 15:15:01;;;;;;;;;;;;;;;;;;5013479;28;1320;-73
2024/01/12 15:17:27;;;;;;;;;;;;;;;;;;5013121;28;1327;-73
2024/01/12 15:19:52;;;;;;;;;;;;;;;;;;5012636;28;1220;-73
2024/01/12 15:22:17;;;;;;;;;;;;;;;;;;5031413;28;1967;-73
2024/01/12 15:24:43;;;;;;;;;;;;;;;;;;5015200;28;1226;-72
2024/01/12 15:27:08;;;;;;;;;;;;;;;;;;5016369;28;1340;-73
2024/01/12 15:29:36;;;;;;;;;;;;;;;;;;5036994;28;821;-72
2024/01/12 15:32:01;;;;;;;;;;;;;;;;;;5019024;28;1161;-72
2024/01/12 15:34:26;;;;;;;;;;;;;;;;;;5019338;28;1169;-72
2024/01/12 15:36:52;;;;;;;;;;;;;;;;;;5037897;28;881;-78
2024/01/12 15:39:17;;;;;;;;;;;;;;;;;;5019808;28;1382;-79
2024/01/12 15:41:43;;;;;;;;;;;;;;;;;;5035249;28;1981;-78
2024/01/12 15:44:08;;;;;;;;;;;;;;;;;;5034929;28;1272;-77
2024/01/12 15:46:34;;;;;;;;;;;;;;;;;;5032974;28;1251;-79
2024/01/12 15:48:59;;;;;;;;;;;;;;;;;;5034731;28;1138;-78
2024/01/12 15:51:24;;;;;;;;;;;;;;;;;;5035496;28;1153;-77
2024/01/12 15:53:49;;;;;;;;;;;;;;;;;;5029943;28;1315;-77
2024/01/12 15:56:18;;;;;;;;;;;;;;;;;;5034889;28;1213;-79
2024/01/12 15:58:43;;;;;;;;;;;;;;;;;;5035211;28;1165;-78
2024/01/12 16:01:09;;;;;;;;;;;;;;;;;;5016830;28;1906;-79
2024/01/12 16:03:34;;;;;;;;;;;;;;;;;;5017217;28;1248;-78
2024/01/12 16:06:05;;;;;;;;;;;;;;;;;;4999548;28;1209;-79
2024/01/12 16:08:31;;;;;;;;;;;;;;;;;;4999655;28;1275;-73
2024/01/12 16:10:56;;;;;;;;;;;;;;;;;;5016914;28;904;-79
2024/01/12 16:13:21;;;;;;;;;;;;;;;;;;5017426;28;901;-79
2024/01/12 16:15:46;;;;;;;;;;;;;;;;;;5018952;28;1162;-79
2024/01/12 16:18:12;;;;;;;;;;;;;;;;;;5026220;28;1209;-79
2024/01/12 16:20:37;;;;;;;;;;;;;;;;;;5032488;28;1973;-79
2024/01/12 16:23:02;;;;;;;;;;;;;;;;;;5033517;28;1241;-79
2024/01/12 16:25:27;;;;;;;;;;;;;;;;;;5016558;28;1220;-79
2024/01/12 16:27:53;;;;;;;;;;;;;;;;;;5036614;28;829;-79
2024/01/12 16:30:18;;;;;;;;;;;;;;;;;;5018948;28;1161;-79
2024/01/12 16:32:44;;;;;;;;;;;;;;;;;;5036831;28;1060;-79
2024/01/12 16:35:09;;;;;;;;;;;;;;;;;;5035190;28;1390;-79
2024/01/12 16:37:34;;;;;;;;;;;;;;;;;;5018415;28;1129;-78
2024/01/12 16:40:00;;;;;;;;;;;;;;;;;;5035932;28;1980;-79
2024/01/12 16:42:25;;;;;;;;;;;;;;;;;;5018955;28;1275;-79
2024/01/12 16:44:50;;;;;;;;;;;;;;;;;;5036974;28;825;-79
2024/01/12 16:47:15;;;;;;;;;;;;;;;;;;5036118;28;1061;-79
2024/01/12 16:49:41;;;;;;;;;;;;;;;;;;5036944;28;829;-79
2024/01/12 16:52:06;;;;;;;;;;;;;;;;;;5036215;28;1078;-79
2024/01/12 16:54:31;;;;;;;;;;;;;;;;;;5034707;28;1293;-79
2024/01/12 16:56:56;;;;;;;;;;;;;;;;;;5036326;28;967;-79
2024/01/12 16:59:22;;;;;;;;;;;;;;;;;;5018089;28;1208;-80